createdAt,value
2018-12-21T00:00:19.396Z,6.40
2018-12-21T00:02:47.579Z,6.40
2018-12-21T00:05:15.916Z,6.40
2018-12-21T00:07:44.078Z,6.40
2018-12-21T00:10:14.714Z,6.30
2018-12-21T00:12:43.601Z,6.30
2018-12-21T00:15:13.183Z,6.30
2018-12-21T00:17:41.335Z,6.40
2018-12-21T00:20:10.756Z,6.40
2018-12-21T00:22:39.971Z,6.30
2018-12-21T00:25:08.287Z,6.30
2018-12-21T00:27:36.782Z,6.30
2018-12-21T00:30:08.696Z,6.40
2018-12-21T00:32:42.355Z,6.40
2018-12-21T00:35:16.156Z,6.40
2018-12-21T00:37:52.824Z,6.40
2018-12-21T00:40:26.500Z,6.40
2018-12-21T00:44:01.797Z,6.50
2018-12-21T00:46:34.978Z,6.40
2018-12-21T00:49:04.406Z,6.50
2018-12-21T00:51:32.639Z,6.40
2018-12-21T00:54:00.790Z,6.40
2018-12-21T00:56:29.934Z,6.40
2018-12-21T00:58:58.121Z,6.40
2018-12-21T01:01:28.341Z,6.50
2018-12-21T01:03:56.688Z,6.50
2018-12-21T01:06:24.956Z,6.40
2018-12-21T01:08:53.195Z,6.50
2018-12-21T01:11:21.765Z,6.50
2018-12-21T01:13:49.901Z,6.50
2018-12-21T01:16:18.137Z,6.50
2018-12-21T01:18:46.295Z,6.50
2018-12-21T01:21:14.887Z,6.50
2018-12-21T01:23:43.048Z,6.50
2018-12-21T01:26:11.200Z,6.60
2018-12-21T01:28:40.404Z,6.50
2018-12-21T01:31:08.683Z,6.50
2018-12-21T01:33:37.028Z,6.50
2018-12-21T01:36:05.232Z,6.40
2018-12-21T01:38:33.408Z,6.50
2018-12-21T01:41:01.649Z,6.50
2018-12-21T01:43:29.824Z,6.40
2018-12-21T01:45:57.999Z,6.50
2018-12-21T01:48:26.133Z,6.50
2018-12-21T01:50:55.250Z,6.60
2018-12-21T01:53:23.465Z,6.60
2018-12-21T01:55:51.679Z,6.60
2018-12-21T01:58:19.879Z,6.60
2018-12-21T02:00:48.648Z,6.40
2018-12-21T02:03:16.838Z,6.50
2018-12-21T02:05:45.089Z,6.50
2018-12-21T02:08:14.232Z,6.50
2018-12-21T02:10:42.405Z,6.50
2018-12-21T02:13:10.565Z,6.50
2018-12-21T02:15:39.665Z,6.60
2018-12-21T02:18:07.877Z,6.50
2018-12-21T02:20:36.036Z,6.60
2018-12-21T02:23:05.395Z,6.50
2018-12-21T02:25:35.504Z,6.50
2018-12-21T02:28:03.666Z,6.60
2018-12-21T02:30:31.821Z,6.60
2018-12-21T02:33:00.011Z,6.60
2018-12-21T02:35:28.876Z,6.60
2018-12-21T02:37:57.191Z,6.60
2018-12-21T02:40:25.460Z,6.60
2018-12-21T02:42:54.671Z,6.70
2018-12-21T02:45:22.810Z,6.60
2018-12-21T02:47:51.128Z,6.60
2018-12-21T02:50:20.244Z,6.60
2018-12-21T02:52:48.401Z,6.70
2018-12-21T02:55:16.640Z,6.70
2018-12-21T02:57:44.787Z,6.70
2018-12-21T03:00:13.147Z,6.70
2018-12-21T03:02:44.302Z,6.70
2018-12-21T03:05:12.537Z,6.60
2018-12-21T03:07:40.726Z,6.60
2018-12-21T03:10:09.141Z,6.50
2018-12-21T03:12:37.304Z,6.60
2018-12-21T03:15:06.174Z,6.50
2018-12-21T03:17:34.407Z,6.60
2018-12-21T03:20:02.625Z,6.50
2018-12-21T03:22:30.954Z,6.50
2018-12-21T03:24:59.184Z,6.50
2018-12-21T03:27:27.324Z,6.50
2018-12-21T03:29:55.481Z,6.40
2018-12-21T03:32:23.737Z,6.40
2018-12-21T03:34:51.960Z,6.40
2018-12-21T03:37:20.252Z,6.50
2018-12-21T03:39:48.507Z,6.50
2018-12-21T03:42:16.748Z,6.50
2018-12-21T03:44:44.986Z,6.50
2018-12-21T03:47:13.224Z,6.50
2018-12-21T03:49:41.570Z,6.50
2018-12-21T03:52:09.821Z,6.50
2018-12-21T03:54:38.088Z,6.50
2018-12-21T03:57:07.380Z,6.50
2018-12-21T03:59:35.529Z,6.50
2018-12-21T04:02:04.650Z,6.50
2018-12-21T04:04:32.788Z,6.50
2018-12-21T04:07:01.024Z,6.40
2018-12-21T04:09:29.293Z,6.50
2018-12-21T04:11:57.456Z,6.50
2018-12-21T04:14:25.651Z,6.40
2018-12-21T04:16:53.797Z,6.30
2018-12-21T04:19:21.977Z,6.20
2018-12-21T04:21:50.217Z,6.30
2018-12-21T04:24:18.439Z,6.30
2018-12-21T04:26:46.654Z,6.20
2018-12-21T04:29:15.339Z,6.20
2018-12-21T04:31:43.489Z,6.00
2018-12-21T04:34:11.680Z,6.00
2018-12-21T04:36:39.867Z,6.00
2018-12-21T04:39:08.121Z,5.90
2018-12-21T04:41:36.267Z,5.80
2018-12-21T04:44:05.437Z,5.70
2018-12-21T04:46:33.663Z,5.70
2018-12-21T04:49:01.815Z,5.80
2018-12-21T04:51:29.955Z,5.70
2018-12-21T04:53:58.128Z,5.70
2018-12-21T04:56:28.153Z,5.70
2018-12-21T04:58:56.430Z,5.70
2018-12-21T05:01:24.589Z,5.70
2018-12-21T05:03:53.774Z,5.70
2018-12-21T05:06:22.723Z,5.70
2018-12-21T05:08:50.852Z,5.70
2018-12-21T05:11:19.109Z,5.70
2018-12-21T05:13:47.344Z,5.70
2018-12-21T05:16:16.451Z,5.70
2018-12-21T05:18:44.621Z,5.70
2018-12-21T05:21:12.845Z,5.70
2018-12-21T05:23:41.070Z,5.70
2018-12-21T05:26:10.129Z,5.60
2018-12-21T05:28:38.276Z,5.70
2018-12-21T05:31:07.396Z,5.70
2018-12-21T05:33:35.573Z,5.70
2018-12-21T05:36:03.809Z,5.70
2018-12-21T05:38:31.952Z,5.60
2018-12-21T05:41:00.200Z,5.70
2018-12-21T05:43:28.466Z,5.70
2018-12-21T05:45:56.711Z,5.60
2018-12-21T05:48:24.963Z,5.60
2018-12-21T05:50:53.105Z,5.60
2018-12-21T05:53:21.262Z,5.60
2018-12-21T05:55:49.470Z,5.60
2018-12-21T05:58:17.789Z,5.60
2018-12-21T06:00:46.000Z,5.60
2018-12-21T06:03:16.833Z,5.60
2018-12-21T06:05:45.080Z,5.60
2018-12-21T06:08:13.321Z,5.60
2018-12-21T06:10:41.504Z,5.60
2018-12-21T06:13:10.076Z,5.60
2018-12-21T06:15:38.236Z,5.60
2018-12-21T06:18:06.411Z,5.60
2018-12-21T06:20:34.556Z,5.70
2018-12-21T06:23:09.433Z,5.60
2018-12-21T06:25:32.988Z,5.60
2018-12-21T06:28:01.200Z,5.60
2018-12-21T06:30:29.674Z,5.60
2018-12-21T06:32:57.888Z,5.60
2018-12-21T06:35:26.049Z,5.60
2018-12-21T06:37:54.209Z,5.60
2018-12-21T06:40:22.386Z,5.60
2018-12-21T06:42:50.816Z,5.60
2018-12-21T06:45:19.163Z,5.60
2018-12-21T06:47:47.328Z,5.60
2018-12-21T06:50:15.584Z,5.70
2018-12-21T06:52:43.759Z,5.70
2018-12-21T06:55:12.084Z,5.60
2018-12-21T06:57:40.227Z,5.70
2018-12-21T07:00:10.635Z,5.70
2018-12-21T07:02:39.292Z,5.60
2018-12-21T07:05:10.870Z,5.60
2018-12-21T07:07:39.232Z,5.70
2018-12-21T07:10:18.218Z,5.70
2018-12-21T07:12:46.972Z,5.60
2018-12-21T07:15:17.343Z,5.70
2018-12-21T07:20:39.335Z,5.80
2018-12-21T07:23:08.039Z,5.70
2018-12-21T07:28:33.661Z,5.80
2018-12-21T07:31:04.925Z,5.80
2018-12-21T07:33:41.962Z,5.80
2018-12-21T07:36:29.856Z,5.80
2018-12-21T07:38:58.188Z,5.90
2018-12-21T07:41:26.875Z,5.90
2018-12-21T07:43:55.036Z,5.90
2018-12-21T07:46:24.088Z,5.90
2018-12-21T07:48:52.304Z,5.90
2018-12-21T07:51:21.831Z,5.90
2018-12-21T07:56:04.659Z,5.90
2018-12-21T07:58:33.171Z,5.90
2018-12-21T08:01:24.077Z,5.90
2018-12-21T08:07:16.241Z,5.90
2018-12-21T08:09:44.833Z,5.90
2018-12-21T08:15:31.715Z,5.90
2018-12-21T08:18:18.054Z,5.90
2018-12-21T08:23:55.328Z,5.90
2018-12-21T08:26:23.692Z,6.00
2018-12-21T08:28:51.924Z,6.00
2018-12-21T08:31:20.091Z,6.10
2018-12-21T08:33:48.422Z,6.20
2018-12-21T08:36:16.715Z,6.10
2018-12-21T08:38:44.884Z,6.10
2018-12-21T08:41:13.129Z,6.20
2018-12-21T08:43:41.310Z,6.20
2018-12-21T08:46:09.739Z,6.20
2018-12-21T08:48:37.945Z,6.20
2018-12-21T08:51:06.398Z,6.20
2018-12-21T08:53:34.736Z,6.20
2018-12-21T08:56:03.052Z,6.30
2018-12-21T08:58:31.288Z,6.20
2018-12-21T09:00:59.452Z,6.30
2018-12-21T09:03:27.805Z,6.30
2018-12-21T09:05:55.960Z,6.30
2018-12-21T09:08:24.191Z,6.30
2018-12-21T09:10:52.432Z,6.30
2018-12-21T09:13:20.787Z,6.40
2018-12-21T09:15:49.009Z,6.30
2018-12-21T09:18:17.214Z,6.40
2018-12-21T09:20:45.445Z,6.40
2018-12-21T09:23:13.824Z,6.40
2018-12-21T09:25:42.011Z,6.40
2018-12-21T09:28:10.149Z,6.40
2018-12-21T09:30:38.499Z,6.40
2018-12-21T09:33:06.849Z,6.50
2018-12-21T09:35:35.003Z,6.50
2018-12-21T09:38:03.171Z,6.50
2018-12-21T09:40:31.420Z,6.50
2018-12-21T09:42:59.702Z,6.60
2018-12-21T09:45:28.027Z,6.60
2018-12-21T09:47:56.402Z,6.60
2018-12-21T09:50:24.591Z,6.70
2018-12-21T09:52:53.110Z,6.70
2018-12-21T09:55:21.336Z,6.70
2018-12-21T09:57:49.632Z,6.80
2018-12-21T10:00:20.724Z,6.90
2018-12-21T10:02:49.961Z,6.90
2018-12-21T10:05:18.275Z,6.90
2018-12-21T10:07:46.423Z,6.90
2018-12-21T10:10:14.752Z,6.90
2018-12-21T10:12:42.981Z,6.90
2018-12-21T10:15:11.522Z,6.90
2018-12-21T10:17:39.779Z,7.00
2018-12-21T10:20:09.111Z,7.00
2018-12-21T10:22:38.256Z,7.00
2018-12-21T10:25:07.404Z,7.10
2018-12-21T10:27:35.670Z,7.10
2018-12-21T10:30:04.879Z,7.20
2018-12-21T10:32:33.139Z,7.30
2018-12-21T10:35:01.477Z,7.20
2018-12-21T10:37:29.800Z,7.30
2018-12-21T10:39:59.651Z,7.50
2018-12-21T10:42:27.928Z,7.50
2018-12-21T10:44:56.100Z,7.60
2018-12-21T10:47:24.290Z,7.60
2018-12-21T10:49:53.116Z,7.70
2018-12-21T10:52:21.401Z,7.70
2018-12-21T10:58:22.366Z,7.90
2018-12-21T11:00:53.032Z,8.00
2018-12-21T11:03:33.378Z,8.10
2018-12-21T11:06:24.012Z,8.20
2018-12-21T11:08:52.392Z,8.20
2018-12-21T11:11:20.698Z,8.10
2018-12-21T11:16:35.898Z,8.20
2018-12-21T11:22:52.995Z,8.20
2018-12-21T11:30:58.997Z,8.30
2018-12-21T11:50:37.123Z,8.50
2018-12-21T11:53:06.629Z,8.50
2018-12-21T11:55:40.830Z,8.60
2018-12-21T11:58:13.128Z,8.60
2018-12-21T12:03:24.285Z,8.70
2018-12-21T12:08:36.103Z,8.60
2018-12-21T12:11:05.024Z,8.60
2018-12-21T12:13:33.606Z,8.60
2018-12-21T12:16:02.457Z,8.60
2018-12-21T12:18:32.531Z,8.60
2018-12-21T12:21:02.500Z,8.60
2018-12-21T12:23:36.588Z,8.60
2018-12-21T12:26:05.891Z,8.60
2018-12-21T12:34:14.591Z,8.60
2018-12-21T12:36:43.018Z,8.60
2018-12-21T12:39:16.917Z,8.60
2018-12-21T12:41:45.537Z,8.70
2018-12-21T12:44:14.525Z,8.60
2018-12-21T12:46:42.894Z,8.60
2018-12-21T12:49:11.737Z,8.70
2018-12-21T12:51:40.809Z,8.70
2018-12-21T12:54:13.973Z,8.70
2018-12-21T12:59:43.683Z,8.70
2018-12-21T13:02:13.228Z,8.70
2018-12-21T13:04:41.772Z,8.70
2018-12-21T13:07:12.693Z,8.70
2018-12-21T13:09:43.338Z,8.60
2018-12-21T13:18:08.948Z,8.70
2018-12-21T13:23:51.373Z,8.70
2018-12-21T13:32:27.246Z,8.80
2018-12-21T13:37:54.968Z,8.90
